createdAt,value
2023-05-14T00:02:17.022Z,100481.22
2023-05-14T00:04:48.005Z,100479.69
2023-05-14T00:07:19.831Z,100481.38
2023-05-14T00:09:52.868Z,100474.34
2023-05-14T00:12:20.789Z,100473.28
2023-05-14T00:14:50.681Z,100470.88
2023-05-14T00:17:22.750Z,100482.50
2023-05-14T00:19:51.546Z,100479.69
2023-05-14T00:22:22.447Z,100475.03
2023-05-14T00:24:52.399Z,100473.66
2023-05-14T00:27:20.820Z,100468.03
2023-05-14T00:29:51.215Z,100458.31
2023-05-14T00:32:21.245Z,100465.28
2023-05-14T00:34:50.568Z,100461.47
2023-05-14T00:37:28.187Z,100457.47
2023-05-14T00:39:58.653Z,100458.09
2023-05-14T00:42:33.477Z,100460.59
2023-05-14T00:45:14.249Z,100448.56
2023-05-14T00:47:45.214Z,100456.56
2023-05-14T00:50:17.116Z,100445.38
2023-05-14T00:52:50.936Z,100446.72
2023-05-14T00:55:21.796Z,100452.78
2023-05-14T00:58:19.279Z,100447.56
2023-05-14T01:00:53.396Z,100451.41
2023-05-14T01:03:22.859Z,100442.69
2023-05-14T01:06:06.463Z,100457.50
2023-05-14T01:08:41.783Z,100458.16
2023-05-14T01:11:19.946Z,100445.72
2023-05-14T01:13:56.840Z,100438.25
2023-05-14T01:16:28.657Z,100451.72
2023-05-14T01:19:06.610Z,100436.09
2023-05-14T01:21:43.560Z,100446.50
2023-05-14T01:24:14.232Z,100431.84
2023-05-14T01:26:44.658Z,100439.03
2023-05-14T01:29:20.379Z,100435.34
2023-05-14T01:31:54.236Z,100444.13
2023-05-14T01:34:25.484Z,100450.19
2023-05-14T01:37:00.805Z,100446.78
2023-05-14T01:39:31.979Z,100444.31
2023-05-14T01:42:02.374Z,100444.91
2023-05-14T01:44:32.899Z,100446.22
2023-05-14T01:47:01.603Z,100441.63
2023-05-14T01:49:43.844Z,100430.38
2023-05-14T01:52:18.384Z,100445.09
2023-05-14T01:54:47.508Z,100439.53
2023-05-14T01:57:15.777Z,100438.91
2023-05-14T01:59:45.089Z,100437.84
2023-05-14T02:02:18.073Z,100439.78
2023-05-14T02:04:47.263Z,100431.22
2023-05-14T02:07:17.197Z,100434.38
2023-05-14T02:09:47.644Z,100441.88
2023-05-14T02:12:15.870Z,100436.44
2023-05-14T02:14:43.732Z,100425.41
2023-05-14T02:17:23.006Z,100435.22
2023-05-14T02:19:50.900Z,100435.88
2023-05-14T02:22:20.513Z,100425.50
2023-05-14T02:24:50.611Z,100430.81
2023-05-14T02:27:19.849Z,100424.31
2023-05-14T02:29:50.613Z,100421.84
2023-05-14T02:32:20.419Z,100420.66
2023-05-14T02:34:49.296Z,100421.28
2023-05-14T02:37:17.207Z,100418.09
2023-05-14T02:39:47.085Z,100418.94
2023-05-14T02:42:17.510Z,100420.81
2023-05-14T02:44:45.376Z,100419.59
2023-05-14T02:47:16.078Z,100422.69
2023-05-14T02:49:44.641Z,100409.22
2023-05-14T02:52:13.045Z,100414.19
2023-05-14T02:54:41.661Z,100419.88
2023-05-14T02:57:13.637Z,100421.53
2023-05-14T02:59:42.167Z,100419.47
2023-05-14T03:02:12.856Z,100418.88
2023-05-14T03:04:42.216Z,100422.03
2023-05-14T03:07:11.602Z,100421.44
2023-05-14T03:09:39.961Z,100415.38
2023-05-14T03:12:14.447Z,100422.66
2023-05-14T03:14:44.260Z,100416.59
2023-05-14T03:17:13.587Z,100420.75
2023-05-14T03:19:44.314Z,100427.69
2023-05-14T03:22:13.497Z,100411.16
2023-05-14T03:24:42.346Z,100405.97
2023-05-14T03:27:13.700Z,100419.56
2023-05-14T03:29:51.210Z,100420.59
2023-05-14T03:32:19.843Z,100420.75
2023-05-14T03:34:48.802Z,100412.22
2023-05-14T03:37:18.996Z,100410.56
2023-05-14T03:39:48.081Z,100405.41
2023-05-14T03:42:22.005Z,100416.47
2023-05-14T03:44:52.241Z,100415.44
2023-05-14T03:47:23.481Z,100404.41
2023-05-14T03:49:51.428Z,100415.41
2023-05-14T03:52:19.370Z,100417.06
2023-05-14T03:54:52.567Z,100413.97
2023-05-14T03:57:22.894Z,100404.16
2023-05-14T03:59:51.897Z,100410.38
2023-05-14T04:02:21.409Z,100412.25
2023-05-14T04:04:49.928Z,100412.09
2023-05-14T04:07:20.938Z,100403.53
2023-05-14T04:09:50.991Z,100414.59
2023-05-14T04:12:19.730Z,100407.91
2023-05-14T04:14:50.533Z,100406.03
2023-05-14T04:17:19.915Z,100417.06
2023-05-14T04:19:52.211Z,100405.63
2023-05-14T04:22:20.397Z,100422.28
2023-05-14T04:24:48.242Z,100420.97
2023-05-14T04:27:22.844Z,100424.94
2023-05-14T04:29:58.658Z,100425.31
2023-05-14T04:32:32.978Z,100407.41
2023-05-14T04:35:02.524Z,100424.72
2023-05-14T04:37:36.061Z,100427.88
2023-05-14T04:40:06.834Z,100422.84
2023-05-14T04:42:35.957Z,100423.97
2023-05-14T04:45:06.817Z,100423.66
2023-05-14T04:47:35.624Z,100423.34
2023-05-14T04:50:04.587Z,100431.44
2023-05-14T04:52:33.234Z,100437.03
2023-05-14T04:55:03.703Z,100432.59
2023-05-14T04:57:34.163Z,100428.13
2023-05-14T05:00:02.258Z,100437.28
2023-05-14T05:02:39.753Z,100430.69
2023-05-14T05:05:11.382Z,100419.28
2023-05-14T05:07:42.683Z,100426.25
2023-05-14T05:10:14.860Z,100413.50
2023-05-14T05:12:42.948Z,100427.63
2023-05-14T05:15:14.481Z,100420.97
2023-05-14T05:17:49.768Z,100420.59
2023-05-14T05:20:17.867Z,100432.13
2023-05-14T05:22:53.543Z,100425.03
2023-05-14T05:25:23.866Z,100422.72
2023-05-14T05:27:54.362Z,100426.91
2023-05-14T05:30:22.662Z,100427.75
2023-05-14T05:32:55.115Z,100425.19
2023-05-14T05:35:25.709Z,100427.44
2023-05-14T05:37:55.912Z,100428.47
2023-05-14T05:40:24.743Z,100419.84
2023-05-14T05:42:53.653Z,100420.59
2023-05-14T05:45:22.812Z,100407.22
2023-05-14T05:47:54.851Z,100420.50
2023-05-14T05:50:25.877Z,100417.91
2023-05-14T05:52:54.323Z,100416.81
2023-05-14T05:55:23.957Z,100408.75
2023-05-14T05:57:52.256Z,100422.75
2023-05-14T06:00:22.530Z,100411.50
2023-05-14T06:02:50.764Z,100413.81
2023-05-14T06:05:24.721Z,100420.50
2023-05-14T06:07:55.683Z,100416.34
2023-05-14T06:10:25.205Z,100421.94
2023-05-14T06:12:53.876Z,100413.97
2023-05-14T06:15:24.217Z,100420.88
2023-05-14T06:17:54.362Z,100426.91
2023-05-14T06:20:24.511Z,100425.00
2023-05-14T06:22:58.069Z,100423.06
2023-05-14T06:25:28.428Z,100412.78
2023-05-14T06:27:58.383Z,100426.31
2023-05-14T06:30:32.776Z,100419.19
2023-05-14T06:33:07.261Z,100411.66
2023-05-14T06:35:39.353Z,100409.78
2023-05-14T06:38:21.384Z,100422.53
2023-05-14T06:40:51.528Z,100420.53
2023-05-14T06:43:20.997Z,100421.06
2023-05-14T06:45:50.300Z,100413.94
2023-05-14T06:48:23.706Z,100418.84
2023-05-14T06:50:51.685Z,100415.84
2023-05-14T06:53:22.338Z,100421.06
2023-05-14T06:55:50.227Z,100426.88
2023-05-14T06:58:30.965Z,100405.66
2023-05-14T07:01:02.559Z,100400.50
2023-05-14T07:03:32.439Z,100397.75
2023-05-14T07:06:00.893Z,100396.16
2023-05-14T07:08:36.139Z,100407.03
2023-05-14T07:11:05.940Z,100401.63
2023-05-14T07:13:35.234Z,100401.34
2023-05-14T07:16:06.344Z,100407.31
2023-05-14T07:18:38.306Z,100396.09
2023-05-14T07:21:07.776Z,100383.22
2023-05-14T07:23:39.869Z,100384.78
2023-05-14T07:26:12.492Z,100385.41
2023-05-14T07:28:42.071Z,100374.38
2023-05-14T07:31:11.149Z,100374.94
2023-05-14T07:33:39.934Z,100370.59
2023-05-14T07:36:09.950Z,100369.28
2023-05-14T07:38:39.780Z,100371.13
2023-05-14T07:41:16.543Z,100364.28
2023-05-14T07:43:46.213Z,100364.03
2023-05-14T07:46:16.476Z,100366.16
2023-05-14T07:48:46.708Z,100362.50
2023-05-14T07:51:18.217Z,100352.94
2023-05-14T07:53:52.018Z,100352.47
2023-05-14T07:56:21.833Z,100354.34
2023-05-14T07:58:52.086Z,100363.47
2023-05-14T08:01:21.865Z,100356.25
2023-05-14T08:03:51.052Z,100341.91
2023-05-14T08:06:21.210Z,100343.00
2023-05-14T08:08:56.225Z,100342.44
2023-05-14T08:11:30.663Z,100344.94
2023-05-14T08:13:58.556Z,100339.66
2023-05-14T08:16:26.514Z,100343.25
2023-05-14T08:19:06.158Z,100347.69
2023-05-14T08:21:35.473Z,100346.66
2023-05-14T08:24:12.763Z,100343.06
2023-05-14T08:26:46.244Z,100337.66
2023-05-14T08:29:17.482Z,100343.66
2023-05-14T08:31:49.016Z,100319.38
2023-05-14T08:34:25.708Z,100334.69
2023-05-14T08:37:00.357Z,100327.53
2023-05-14T08:39:30.670Z,100325.66
2023-05-14T08:41:59.862Z,100313.53
2023-05-14T08:44:39.085Z,100321.88
2023-05-14T08:47:09.439Z,100326.50
2023-05-14T08:49:42.685Z,100310.25
2023-05-14T08:52:15.716Z,100306.69
2023-05-14T08:54:47.493Z,100302.88
2023-05-14T08:57:16.168Z,100320.25
2023-05-14T08:59:45.662Z,100306.44
2023-05-14T09:02:16.893Z,100305.34
2023-05-14T09:04:46.194Z,100314.91
2023-05-14T09:07:16.857Z,100313.59
2023-05-14T09:09:46.995Z,100302.88
2023-05-14T09:12:20.095Z,100302.56
2023-05-14T09:14:54.330Z,100304.28
2023-05-14T09:17:27.765Z,100299.88
2023-05-14T09:19:57.520Z,100293.25
2023-05-14T09:22:27.588Z,100296.72
2023-05-14T09:25:12.465Z,100281.91
2023-05-14T09:27:41.361Z,100281.41
2023-05-14T09:30:17.193Z,100289.38
2023-05-14T09:32:46.050Z,100278.38
2023-05-14T09:35:18.616Z,100285.13
2023-05-14T09:37:50.994Z,100284.19
2023-05-14T09:40:26.870Z,100285.78
2023-05-14T09:42:56.645Z,100286.91
2023-05-14T09:45:25.602Z,100293.78
2023-05-14T09:47:56.306Z,100294.88
2023-05-14T09:50:25.575Z,100296.25
2023-05-14T09:52:58.788Z,100297.91
2023-05-14T09:55:28.923Z,100292.13
2023-05-14T09:58:04.780Z,100290.22
2023-05-14T10:00:35.559Z,100276.84
2023-05-14T10:03:08.937Z,100279.19
2023-05-14T10:05:44.409Z,100285.84
2023-05-14T10:08:23.277Z,100281.81
2023-05-14T10:10:56.452Z,100280.47
2023-05-14T10:13:31.616Z,100285.50
2023-05-14T10:16:10.750Z,100282.69
2023-05-14T10:18:48.796Z,100280.94
2023-05-14T10:21:23.120Z,100277.53
2023-05-14T10:23:53.269Z,100281.78
2023-05-14T10:26:28.168Z,100277.66
2023-05-14T10:29:00.369Z,100270.56
2023-05-14T10:31:47.228Z,100272.25
2023-05-14T10:34:37.467Z,100272.97
2023-05-14T10:37:08.406Z,100257.16
2023-05-14T10:39:43.030Z,100272.78
2023-05-14T10:42:14.552Z,100261.22
2023-05-14T10:44:54.260Z,100262.47
2023-05-14T10:47:24.804Z,100261.41
2023-05-14T10:49:58.448Z,100258.84
2023-05-14T10:52:35.340Z,100255.09
2023-05-14T10:55:07.864Z,100252.91
2023-05-14T10:57:39.875Z,100247.63
2023-05-14T11:00:11.773Z,100241.94
2023-05-14T11:02:44.041Z,100245.88
2023-05-14T11:05:16.031Z,100246.03
2023-05-14T11:07:45.918Z,100243.50
2023-05-14T11:10:16.414Z,100230.88
2023-05-14T11:12:54.217Z,100239.03
2023-05-14T11:15:24.077Z,100233.03
2023-05-14T11:17:53.732Z,100236.88
2023-05-14T11:20:22.567Z,100229.75
2023-05-14T11:22:53.287Z,100236.28
2023-05-14T11:25:22.880Z,100224.72
2023-05-14T11:28:00.707Z,100234.81
2023-05-14T11:30:31.828Z,100226.59
2023-05-14T11:33:02.297Z,100222.00
2023-05-14T11:35:32.581Z,100218.34
2023-05-14T11:38:01.692Z,100217.56
2023-05-14T11:40:29.744Z,100218.59
2023-05-14T11:43:00.597Z,100217.19
2023-05-14T11:45:30.130Z,100207.69
2023-05-14T11:47:59.322Z,100207.16
2023-05-14T11:50:27.855Z,100204.75
2023-05-14T11:52:58.498Z,100207.25
2023-05-14T11:55:30.352Z,100215.03
2023-05-14T11:58:01.279Z,100194.00
2023-05-14T12:00:31.429Z,100190.88
2023-05-14T12:03:01.329Z,100196.66
2023-05-14T12:05:29.359Z,100184.75
2023-05-14T12:07:59.049Z,100183.69
2023-05-14T12:10:28.664Z,100187.44
2023-05-14T12:12:59.217Z,100181.44
2023-05-14T12:15:29.830Z,100182.50
2023-05-14T12:17:58.053Z,100182.28
2023-05-14T12:20:31.560Z,100182.50
2023-05-14T12:22:59.501Z,100173.47
2023-05-14T12:25:29.101Z,100175.94
2023-05-14T12:27:57.095Z,100172.97
2023-05-14T12:30:29.453Z,100173.59
2023-05-14T12:32:57.772Z,100164.38
2023-05-14T12:35:25.879Z,100168.03
2023-05-14T12:37:57.944Z,100161.16
2023-05-14T12:40:28.073Z,100162.72
2023-05-14T12:42:58.849Z,100159.84
2023-05-14T12:45:31.608Z,100150.03
2023-05-14T12:48:01.152Z,100147.81
2023-05-14T12:50:29.351Z,100141.50
2023-05-14T12:52:59.184Z,100136.28
2023-05-14T12:55:30.145Z,100136.94
2023-05-14T12:57:59.298Z,100129.56
2023-05-14T13:00:31.304Z,100131.03
2023-05-14T13:03:00.882Z,100128.69
2023-05-14T13:05:33.361Z,100114.78
2023-05-14T13:08:06.051Z,100086.22
2023-05-14T13:10:37.471Z,100117.19
2023-05-14T13:13:07.306Z,100107.81
2023-05-14T13:15:39.868Z,100105.50
2023-05-14T13:18:11.348Z,100104.59
2023-05-14T13:20:43.084Z,100095.91
2023-05-14T13:23:16.072Z,100102.00
2023-05-14T13:25:44.167Z,100096.00
2023-05-14T13:28:12.427Z,100094.72
2023-05-14T13:30:43.407Z,100094.19
2023-05-14T13:33:18.377Z,100095.72
2023-05-14T13:35:46.853Z,100088.69
2023-05-14T13:38:17.261Z,100076.28
2023-05-14T13:40:46.087Z,100082.34
2023-05-14T13:43:17.142Z,100076.50
2023-05-14T13:45:47.770Z,100078.38
2023-05-14T13:48:18.391Z,100069.13
2023-05-14T13:50:49.181Z,100061.09
2023-05-14T13:53:17.102Z,100061.47
2023-05-14T13:55:49.025Z,100057.91
2023-05-14T13:58:18.014Z,100034.59
2023-05-14T14:00:48.804Z,100048.09
2023-05-14T14:03:16.895Z,100048.31
2023-05-14T14:05:45.895Z,100044.63
2023-05-14T14:08:23.218Z,100033.72
2023-05-14T14:10:52.118Z,100041.47
2023-05-14T14:13:26.502Z,100039.03
2023-05-14T14:15:56.087Z,100020.16
2023-05-14T14:18:31.953Z,100016.31
2023-05-14T14:21:05.332Z,100024.78
2023-05-14T14:23:38.408Z,100012.78
2023-05-14T14:26:07.349Z,100014.41
2023-05-14T14:28:38.213Z,99994.47
2023-05-14T14:31:08.066Z,99999.13
2023-05-14T14:33:39.324Z,99994.13
2023-05-14T14:36:08.746Z,99990.09
2023-05-14T14:38:36.800Z,99992.19
2023-05-14T14:41:09.952Z,99988.22
2023-05-14T14:43:40.326Z,99991.59
2023-05-14T14:46:09.999Z,99997.66
2023-05-14T14:48:39.120Z,99981.94
2023-05-14T14:51:09.124Z,99978.47
2023-05-14T14:53:38.172Z,99986.97
2023-05-14T14:56:07.574Z,99984.59
2023-05-14T14:58:36.470Z,99983.84
2023-05-14T15:01:07.534Z,99980.50
2023-05-14T15:03:39.885Z,99986.00
2023-05-14T15:06:08.601Z,99974.97
2023-05-14T15:08:36.886Z,99976.97
2023-05-14T15:13:53.003Z,99976.72
2023-05-14T15:16:20.992Z,99981.59
2023-05-14T15:18:50.550Z,99980.56
2023-05-14T15:21:18.747Z,99984.38
2023-05-14T15:23:48.401Z,99974.72
2023-05-14T15:26:16.725Z,99982.88
2023-05-14T15:28:47.514Z,99974.63
2023-05-14T15:31:24.355Z,99978.19
2023-05-14T15:33:56.527Z,99986.06
2023-05-14T15:36:28.662Z,99992.50
2023-05-14T15:38:58.043Z,99997.72
2023-05-14T15:41:28.890Z,100010.81
2023-05-14T15:43:58.739Z,99957.41
2023-05-14T15:46:28.928Z,100009.38
2023-05-14T15:49:02.330Z,100022.19
2023-05-14T15:51:34.054Z,100029.09
2023-05-14T15:54:07.567Z,100032.69
2023-05-14T15:56:39.790Z,100028.78
2023-05-14T15:59:11.262Z,100023.28
2023-05-14T16:01:40.533Z,100031.22
2023-05-14T16:04:12.340Z,100024.94
2023-05-14T16:06:42.679Z,100025.19
2023-05-14T16:09:11.888Z,100023.28
2023-05-14T16:11:40.230Z,100033.16
2023-05-14T16:14:10.585Z,100027.13
2023-05-14T16:16:38.900Z,100024.69
2023-05-14T16:19:10.274Z,100016.66
2023-05-14T16:21:41.371Z,100020.78
2023-05-14T16:24:12.607Z,100010.84
2023-05-14T16:26:40.585Z,100014.38
2023-05-14T16:29:20.900Z,100014.22
2023-05-14T16:31:50.987Z,100009.91
2023-05-14T16:34:24.975Z,99999.28
2023-05-14T16:36:53.096Z,100005.41
2023-05-14T16:39:27.035Z,100006.47
2023-05-14T16:41:58.913Z,100002.66
2023-05-14T16:44:28.567Z,100000.94
2023-05-14T16:46:59.263Z,99985.22
2023-05-14T16:49:29.574Z,99998.38
2023-05-14T16:51:58.261Z,99999.53
2023-05-14T16:54:33.607Z,99997.66
2023-05-14T16:57:07.107Z,100003.44
2023-05-14T16:59:36.187Z,99995.44
2023-05-14T17:02:06.016Z,100008.97
2023-05-14T17:04:46.738Z,100011.19
2023-05-14T17:07:17.901Z,100004.50
2023-05-14T17:09:45.992Z,100006.91
2023-05-14T17:12:15.202Z,100013.81
2023-05-14T17:14:57.000Z,100014.03
2023-05-14T17:17:25.508Z,100002.00
2023-05-14T17:20:00.549Z,100013.00
2023-05-14T17:22:33.802Z,99993.88
2023-05-14T17:25:04.029Z,99983.81
2023-05-14T17:27:36.634Z,99995.00
2023-05-14T17:30:11.719Z,99994.16
2023-05-14T17:32:39.727Z,100006.59
2023-05-14T17:35:12.290Z,100003.78
2023-05-14T17:37:43.034Z,100001.09
2023-05-14T17:40:24.635Z,100010.50
2023-05-14T17:42:52.648Z,100005.38
2023-05-14T17:45:24.428Z,100013.06
2023-05-14T17:47:58.389Z,100011.97
2023-05-14T17:50:27.870Z,100010.66
2023-05-14T17:52:57.202Z,100020.81
2023-05-14T17:55:27.121Z,100008.44
2023-05-14T17:57:55.708Z,100024.91
2023-05-14T18:00:30.491Z,100024.66
2023-05-14T18:03:00.685Z,100017.50
2023-05-14T18:05:31.700Z,100023.81
2023-05-14T18:08:01.856Z,100027.41
2023-05-14T18:10:33.115Z,100028.75
2023-05-14T18:13:03.308Z,100025.44
2023-05-14T18:15:34.028Z,100030.91
2023-05-14T18:18:05.321Z,100023.25
2023-05-14T18:20:38.344Z,100033.63
2023-05-14T18:23:06.812Z,100021.56
2023-05-14T18:25:35.653Z,100036.03
2023-05-14T18:28:06.248Z,100038.00
2023-05-14T18:30:36.328Z,100026.56
2023-05-14T18:33:07.290Z,100031.28
2023-05-14T18:35:38.909Z,100038.63
2023-05-14T18:38:07.995Z,100040.88
2023-05-14T18:40:37.364Z,100043.19
2023-05-14T18:43:06.549Z,100045.69
2023-05-14T18:45:34.847Z,100052.00
2023-05-14T18:48:03.483Z,100054.72
2023-05-14T18:50:36.967Z,100058.00
2023-05-14T18:53:15.036Z,100058.72
2023-05-14T18:55:46.180Z,100047.50
2023-05-14T18:58:15.606Z,100066.03
2023-05-14T19:00:44.576Z,100070.50
2023-05-14T19:03:16.544Z,100051.03
2023-05-14T19:05:44.620Z,100067.47
2023-05-14T19:08:15.891Z,100068.06
2023-05-14T19:10:47.476Z,100054.78
2023-05-14T19:13:19.224Z,100076.72
2023-05-14T19:15:47.624Z,100075.13
2023-05-14T19:18:18.828Z,100093.16
2023-05-14T19:20:50.494Z,100083.03
2023-05-14T19:23:22.250Z,100090.41
2023-05-14T19:25:59.499Z,100091.59
2023-05-14T19:28:27.774Z,100088.75
2023-05-14T19:30:58.973Z,100093.19
2023-05-14T19:33:27.837Z,100091.81
2023-05-14T19:35:59.125Z,100090.63
2023-05-14T19:38:31.612Z,100092.66
2023-05-14T19:40:59.781Z,100093.63
2023-05-14T19:43:29.057Z,100086.03
2023-05-14T19:46:06.212Z,100091.19
2023-05-14T19:48:38.184Z,100094.22
2023-05-14T19:51:07.722Z,100091.31
2023-05-14T19:53:37.080Z,100089.59
2023-05-14T19:56:06.404Z,100082.19
2023-05-14T19:58:34.289Z,100088.25
2023-05-14T20:01:02.854Z,100095.84
2023-05-14T20:03:32.213Z,100107.84
2023-05-14T20:06:04.147Z,100083.34
2023-05-14T20:08:35.589Z,100097.97
2023-05-14T20:11:06.000Z,100093.94
2023-05-14T20:13:36.814Z,100095.88
2023-05-14T20:16:08.042Z,100103.66
2023-05-14T20:18:36.850Z,100102.88
2023-05-14T20:21:05.608Z,100098.75
2023-05-14T20:23:35.002Z,100101.06
2023-05-14T20:26:11.301Z,100084.34
2023-05-14T20:28:44.797Z,100105.09
2023-05-14T20:31:13.505Z,100096.16
2023-05-14T20:33:45.743Z,100089.28
2023-05-14T20:36:16.007Z,100095.31
2023-05-14T20:38:44.809Z,100091.41
2023-05-14T20:41:25.292Z,100093.84
2023-05-14T20:43:56.842Z,100090.44
2023-05-14T20:46:28.276Z,100076.59
2023-05-14T20:49:07.572Z,100080.59
2023-05-14T20:51:35.942Z,100088.81
2023-05-14T20:54:03.927Z,100084.59
2023-05-14T20:56:39.000Z,100081.31
2023-05-14T20:59:12.843Z,100080.78
2023-05-14T21:01:46.638Z,100077.47
2023-05-14T21:04:16.410Z,100078.53
2023-05-14T21:06:47.565Z,100063.75
2023-05-14T21:09:18.648Z,100077.69
2023-05-14T21:11:50.560Z,100080.41
2023-05-14T21:14:25.923Z,100080.72
2023-05-14T21:16:56.276Z,100073.16
2023-05-14T21:19:24.807Z,100071.63
2023-05-14T21:22:00.890Z,100074.41
2023-05-14T21:24:33.566Z,100059.22
2023-05-14T21:27:04.167Z,100069.06
2023-05-14T21:29:35.165Z,100068.94
2023-05-14T21:32:05.196Z,100067.22
2023-05-14T21:34:34.276Z,100057.06
2023-05-14T21:37:08.818Z,100064.38
2023-05-14T21:39:39.562Z,100063.38
2023-05-14T21:42:10.484Z,100063.16
2023-05-14T21:44:38.936Z,100058.22
2023-05-14T21:47:12.652Z,100051.00
2023-05-14T21:49:53.560Z,100053.34
2023-05-14T21:52:21.652Z,100056.50
2023-05-14T21:54:50.733Z,100056.06
2023-05-14T21:57:21.765Z,100048.72
2023-05-14T21:59:50.006Z,100050.44
2023-05-14T22:02:25.011Z,100047.53
2023-05-14T22:04:58.494Z,100045.81
2023-05-14T22:07:26.924Z,100041.66
2023-05-14T22:09:59.110Z,100042.66
2023-05-14T22:12:29.421Z,100037.63
2023-05-14T22:14:59.686Z,100037.63
2023-05-14T22:17:29.721Z,100039.94
2023-05-14T22:20:03.022Z,100040.69
2023-05-14T22:22:32.703Z,100043.75
2023-05-14T22:25:02.182Z,100043.97
2023-05-14T22:27:34.179Z,100035.94
2023-05-14T22:30:03.530Z,100038.84
2023-05-14T22:32:33.641Z,100018.16
2023-05-14T22:35:05.421Z,100038.44
2023-05-14T22:37:42.280Z,100041.19
2023-05-14T22:40:13.352Z,100040.38
2023-05-14T22:42:46.523Z,100031.06
2023-05-14T22:45:16.259Z,100035.28
2023-05-14T22:47:50.230Z,100043.25
2023-05-14T22:50:18.648Z,100046.97
2023-05-14T22:52:46.540Z,100042.00
2023-05-14T22:55:16.245Z,100036.31
2023-05-14T22:57:54.488Z,100034.94
2023-05-14T23:00:23.705Z,100033.13
2023-05-14T23:02:51.983Z,100027.00
2023-05-14T23:05:21.043Z,100016.66
2023-05-14T23:07:49.378Z,100021.47
2023-05-14T23:10:19.994Z,100017.97
2023-05-14T23:12:50.881Z,100019.63
2023-05-14T23:15:20.681Z,100013.44
2023-05-14T23:17:50.726Z,100010.69
2023-05-14T23:20:20.594Z,100010.25
2023-05-14T23:22:49.337Z,100011.69
2023-05-14T23:25:24.711Z,100008.16
2023-05-14T23:28:08.759Z,100002.72
2023-05-14T23:30:37.917Z,99998.72
2023-05-14T23:33:11.034Z,99988.31
2023-05-14T23:35:41.279Z,99989.63
2023-05-14T23:38:10.500Z,99996.03
2023-05-14T23:40:40.653Z,99990.47
2023-05-14T23:43:26.180Z,99991.06
2023-05-14T23:46:03.048Z,99989.91
2023-05-14T23:48:31.634Z,99985.97
2023-05-14T23:51:06.476Z,99984.91
2023-05-14T23:53:39.174Z,99978.19
2023-05-14T23:56:09.003Z,99976.88
2023-05-14T23:58:38.660Z,99977.59
